sensor_id;sensor_type;location;lat;lon;timestamp;temperature;humidity
45044;DHT22;30784;48.490;9.688;2023-05-29T00:01:07;19.10;34.80
45044;DHT22;30784;48.490;9.688;2023-05-29T00:03:34;19.10;34.60
45044;DHT22;30784;48.490;9.688;2023-05-29T00:06:02;19.10;34.80
45044;DHT22;30784;48.490;9.688;2023-05-29T00:08:28;19.00;34.80
45044;DHT22;30784;48.490;9.688;2023-05-29T00:10:54;19.00;34.90
45044;DHT22;30784;48.490;9.688;2023-05-29T00:13:19;19.10;35.00
45044;DHT22;30784;48.490;9.688;2023-05-29T00:15:46;19.00;34.90
45044;DHT22;30784;48.490;9.688;2023-05-29T00:18:11;19.00;35.10
45044;DHT22;30784;48.490;9.688;2023-05-29T00:20:37;19.00;35.00
45044;DHT22;30784;48.490;9.688;2023-05-29T00:23:03;18.90;35.10
45044;DHT22;30784;48.490;9.688;2023-05-29T00:25:31;18.90;35.10
45044;DHT22;30784;48.490;9.688;2023-05-29T00:27:57;18.90;35.10
45044;DHT22;30784;48.490;9.688;2023-05-29T00:30:23;18.90;35.70
45044;DHT22;30784;48.490;9.688;2023-05-29T00:32:48;18.80;35.10
45044;DHT22;30784;48.490;9.688;2023-05-29T00:35:15;18.80;35.30
45044;DHT22;30784;48.490;9.688;2023-05-29T00:37:40;18.80;35.30
45044;DHT22;30784;48.490;9.688;2023-05-29T00:40:06;18.80;35.50
45044;DHT22;30784;48.490;9.688;2023-05-29T00:42:32;18.80;35.40
45044;DHT22;30784;48.490;9.688;2023-05-29T00:44:58;18.80;35.40
45044;DHT22;30784;48.490;9.688;2023-05-29T00:47:24;18.70;35.50
45044;DHT22;30784;48.490;9.688;2023-05-29T00:49:50;18.70;35.50
45044;DHT22;30784;48.490;9.688;2023-05-29T00:52:17;18.60;35.50
45044;DHT22;30784;48.490;9.688;2023-05-29T00:54:45;18.60;35.40
45044;DHT22;30784;48.490;9.688;2023-05-29T00:57:12;18.60;35.60
45044;DHT22;30784;48.490;9.688;2023-05-29T00:59:39;18.60;35.60
45044;DHT22;30784;48.490;9.688;2023-05-29T01:02:06;18.50;35.60
45044;DHT22;30784;48.490;9.688;2023-05-29T01:04:32;18.50;35.60
45044;DHT22;30784;48.490;9.688;2023-05-29T01:07:00;18.50;35.60
45044;DHT22;30784;48.490;9.688;2023-05-29T01:09:30;18.40;35.70
45044;DHT22;30784;48.490;9.688;2023-05-29T01:12:32;18.40;35.80
45044;DHT22;30784;48.490;9.688;2023-05-29T01:15:25;18.40;35.40
45044;DHT22;30784;48.490;9.688;2023-05-29T01:20:31;18.30;35.70
45044;DHT22;30784;48.490;9.688;2023-05-29T01:26:11;18.20;35.70
45044;DHT22;30784;48.490;9.688;2023-05-29T01:28:47;18.20;35.90
45044;DHT22;30784;48.490;9.688;2023-05-29T01:31:19;18.20;35.90
45044;DHT22;30784;48.490;9.688;2023-05-29T01:36:17;18.20;35.80
45044;DHT22;30784;48.490;9.688;2023-05-29T01:38:43;18.20;36.20
45044;DHT22;30784;48.490;9.688;2023-05-29T01:41:09;18.10;36.20
45044;DHT22;30784;48.490;9.688;2023-05-29T01:43:35;18.10;36.20
45044;DHT22;30784;48.490;9.688;2023-05-29T01:46:01;18.10;36.40
45044;DHT22;30784;48.490;9.688;2023-05-29T01:48:27;18.10;36.50
45044;DHT22;30784;48.490;9.688;2023-05-29T01:50:54;18.10;37.00
45044;DHT22;30784;48.490;9.688;2023-05-29T01:53:20;18.10;36.50
45044;DHT22;30784;48.490;9.688;2023-05-29T01:55:48;18.00;36.60
45044;DHT22;30784;48.490;9.688;2023-05-29T01:58:13;18.00;36.60
45044;DHT22;30784;48.490;9.688;2023-05-29T02:00:40;18.00;36.60
45044;DHT22;30784;48.490;9.688;2023-05-29T02:03:05;18.00;36.80
45044;DHT22;30784;48.490;9.688;2023-05-29T02:05:31;17.90;36.70
45044;DHT22;30784;48.490;9.688;2023-05-29T02:07:56;18.00;36.80
45044;DHT22;30784;48.490;9.688;2023-05-29T02:10:22;17.90;36.80
45044;DHT22;30784;48.490;9.688;2023-05-29T02:12:47;17.90;36.90
45044;DHT22;30784;48.490;9.688;2023-05-29T02:15:13;18.20;44.20
45044;DHT22;30784;48.490;9.688;2023-05-29T02:17:38;18.20;41.90
45044;DHT22;30784;48.490;9.688;2023-05-29T02:20:06;18.10;42.30
45044;DHT22;30784;48.490;9.688;2023-05-29T02:22:32;17.90;37.00
45044;DHT22;30784;48.490;9.688;2023-05-29T02:24:58;17.90;42.50
45044;DHT22;30784;48.490;9.688;2023-05-29T02:27:23;18.00;43.80
45044;DHT22;30784;48.490;9.688;2023-05-29T02:29:49;18.10;44.70
45044;DHT22;30784;48.490;9.688;2023-05-29T02:32:15;17.70;45.50
45044;DHT22;30784;48.490;9.688;2023-05-29T02:34:40;17.80;43.80
45044;DHT22;30784;48.490;9.688;2023-05-29T02:37:05;17.90;43.00
45044;DHT22;30784;48.490;9.688;2023-05-29T02:39:31;18.00;50.10
45044;DHT22;30784;48.490;9.688;2023-05-29T02:41:57;17.90;45.10
45044;DHT22;30784;48.490;9.688;2023-05-29T02:46:48;17.70;36.80
45044;DHT22;30784;48.490;9.688;2023-05-29T02:49:14;17.70;37.40
45044;DHT22;30784;48.490;9.688;2023-05-29T02:51:39;17.60;37.50
45044;DHT22;30784;48.490;9.688;2023-05-29T02:54:05;17.60;37.50
45044;DHT22;30784;48.490;9.688;2023-05-29T02:56:30;17.60;37.50
45044;DHT22;30784;48.490;9.688;2023-05-29T02:58:56;17.60;37.50
45044;DHT22;30784;48.490;9.688;2023-05-29T03:01:21;17.60;37.60
45044;DHT22;30784;48.490;9.688;2023-05-29T03:03:47;17.50;37.50
45044;DHT22;30784;48.490;9.688;2023-05-29T03:06:12;17.60;37.50
45044;DHT22;30784;48.490;9.688;2023-05-29T03:08:38;17.60;37.70
45044;DHT22;30784;48.490;9.688;2023-05-29T03:11:09;17.50;37.80
45044;DHT22;30784;48.490;9.688;2023-05-29T03:13:38;17.50;37.80
45044;DHT22;30784;48.490;9.688;2023-05-29T03:16:04;17.50;37.80
45044;DHT22;30784;48.490;9.688;2023-05-29T03:18:30;17.50;37.90
45044;DHT22;30784;48.490;9.688;2023-05-29T03:20:56;17.40;37.90
45044;DHT22;30784;48.490;9.688;2023-05-29T03:23:22;17.40;37.80
45044;DHT22;30784;48.490;9.688;2023-05-29T03:25:48;17.40;38.00
45044;DHT22;30784;48.490;9.688;2023-05-29T03:28:13;17.40;38.10
45044;DHT22;30784;48.490;9.688;2023-05-29T03:30:39;17.40;38.20
45044;DHT22;30784;48.490;9.688;2023-05-29T03:33:04;17.30;38.20
45044;DHT22;30784;48.490;9.688;2023-05-29T03:35:31;17.30;38.20
45044;DHT22;30784;48.490;9.688;2023-05-29T03:37:56;17.30;38.40
45044;DHT22;30784;48.490;9.688;2023-05-29T03:40:22;17.30;38.50
45044;DHT22;30784;48.490;9.688;2023-05-29T03:42:47;17.30;38.50
45044;DHT22;30784;48.490;9.688;2023-05-29T03:45:13;17.20;38.50
45044;DHT22;30784;48.490;9.688;2023-05-29T03:47:38;17.20;38.60
45044;DHT22;30784;48.490;9.688;2023-05-29T03:50:04;17.10;38.60
45044;DHT22;30784;48.490;9.688;2023-05-29T03:52:30;17.20;38.80
45044;DHT22;30784;48.490;9.688;2023-05-29T03:54:55;17.20;38.70
45044;DHT22;30784;48.490;9.688;2023-05-29T03:57:21;17.20;38.80
45044;DHT22;30784;48.490;9.688;2023-05-29T03:59:46;17.20;38.80
45044;DHT22;30784;48.490;9.688;2023-05-29T04:02:12;17.20;38.90
45044;DHT22;30784;48.490;9.688;2023-05-29T04:04:38;17.20;39.00
45044;DHT22;30784;48.490;9.688;2023-05-29T04:07:05;17.20;38.90
45044;DHT22;30784;48.490;9.688;2023-05-29T04:09:32;17.10;39.00
45044;DHT22;30784;48.490;9.688;2023-05-29T04:11:59;17.10;39.10
45044;DHT22;30784;48.490;9.688;2023-05-29T04:14:27;17.10;39.10
45044;DHT22;30784;48.490;9.688;2023-05-29T04:16:53;17.10;39.30
45044;DHT22;30784;48.490;9.688;2023-05-29T04:19:18;17.10;39.40
45044;DHT22;30784;48.490;9.688;2023-05-29T04:21:44;17.10;39.50
45044;DHT22;30784;48.490;9.688;2023-05-29T04:24:09;17.20;39.60
45044;DHT22;30784;48.490;9.688;2023-05-29T04:26:36;17.10;39.60
45044;DHT22;30784;48.490;9.688;2023-05-29T04:29:06;17.20;39.70
45044;DHT22;30784;48.490;9.688;2023-05-29T04:31:32;17.20;39.80
45044;DHT22;30784;48.490;9.688;2023-05-29T04:33:58;17.20;39.80
45044;DHT22;30784;48.490;9.688;2023-05-29T04:36:26;17.20;39.80
45044;DHT22;30784;48.490;9.688;2023-05-29T04:38:54;17.20;39.90
45044;DHT22;30784;48.490;9.688;2023-05-29T04:41:20;17.20;39.90
45044;DHT22;30784;48.490;9.688;2023-05-29T04:43:49;17.30;40.00
45044;DHT22;30784;48.490;9.688;2023-05-29T04:46:16;17.30;40.00
45044;DHT22;30784;48.490;9.688;2023-05-29T04:48:42;17.30;40.20
45044;DHT22;30784;48.490;9.688;2023-05-29T04:51:07;17.30;40.20
45044;DHT22;30784;48.490;9.688;2023-05-29T04:53:39;17.30;40.20
45044;DHT22;30784;48.490;9.688;2023-05-29T04:56:08;17.40;40.50
45044;DHT22;30784;48.490;9.688;2023-05-29T04:58:34;17.40;40.30
45044;DHT22;30784;48.490;9.688;2023-05-29T05:00:59;17.40;40.50
45044;DHT22;30784;48.490;9.688;2023-05-29T05:03:28;17.40;40.50
45044;DHT22;30784;48.490;9.688;2023-05-29T05:05:54;17.50;40.60
45044;DHT22;30784;48.490;9.688;2023-05-29T05:08:19;17.50;40.60
45044;DHT22;30784;48.490;9.688;2023-05-29T05:10:45;17.50;40.70
45044;DHT22;30784;48.490;9.688;2023-05-29T05:13:10;17.50;40.80
45044;DHT22;30784;48.490;9.688;2023-05-29T05:15:37;17.50;40.90
45044;DHT22;30784;48.490;9.688;2023-05-29T05:18:03;17.60;40.90
45044;DHT22;30784;48.490;9.688;2023-05-29T05:20:28;17.60;41.00
45044;DHT22;30784;48.490;9.688;2023-05-29T05:22:54;17.60;40.90
45044;DHT22;30784;48.490;9.688;2023-05-29T05:25:21;17.60;41.10
45044;DHT22;30784;48.490;9.688;2023-05-29T05:27:47;17.60;41.10
45044;DHT22;30784;48.490;9.688;2023-05-29T05:30:13;17.70;41.00
45044;DHT22;30784;48.490;9.688;2023-05-29T05:32:38;17.80;41.10
45044;DHT22;30784;48.490;9.688;2023-05-29T05:35:04;17.80;41.20
45044;DHT22;30784;48.490;9.688;2023-05-29T05:37:29;17.90;41.30
45044;DHT22;30784;48.490;9.688;2023-05-29T05:39:56;17.90;41.40
45044;DHT22;30784;48.490;9.688;2023-05-29T05:42:23;17.90;41.50
45044;DHT22;30784;48.490;9.688;2023-05-29T05:44:49;18.00;41.60
45044;DHT22;30784;48.490;9.688;2023-05-29T05:47:14;18.10;41.60
45044;DHT22;30784;48.490;9.688;2023-05-29T05:49:40;18.20;41.70
45044;DHT22;30784;48.490;9.688;2023-05-29T05:52:06;18.30;41.70
45044;DHT22;30784;48.490;9.688;2023-05-29T05:54:31;18.40;41.80
45044;DHT22;30784;48.490;9.688;2023-05-29T05:56:57;18.50;41.60
45044;DHT22;30784;48.490;9.688;2023-05-29T05:59:22;18.70;41.60
45044;DHT22;30784;48.490;9.688;2023-05-29T06:01:48;18.80;41.30
45044;DHT22;30784;48.490;9.688;2023-05-29T06:04:13;19.00;41.50
45044;DHT22;30784;48.490;9.688;2023-05-29T06:06:39;19.10;41.40
45044;DHT22;30784;48.490;9.688;2023-05-29T06:09:06;19.30;41.50
45044;DHT22;30784;48.490;9.688;2023-05-29T06:11:32;19.50;41.40
45044;DHT22;30784;48.490;9.688;2023-05-29T06:13:57;19.60;41.30
45044;DHT22;30784;48.490;9.688;2023-05-29T06:16:23;19.80;41.10
45044;DHT22;30784;48.490;9.688;2023-05-29T06:18:49;20.00;40.80
45044;DHT22;30784;48.490;9.688;2023-05-29T06:21:14;20.00;40.70
45044;DHT22;30784;48.490;9.688;2023-05-29T06:23:40;20.30;40.70
45044;DHT22;30784;48.490;9.688;2023-05-29T06:26:07;20.40;40.60
45044;DHT22;30784;48.490;9.688;2023-05-29T06:28:32;20.60;40.50
45044;DHT22;30784;48.490;9.688;2023-05-29T06:30:58;20.70;40.10
45044;DHT22;30784;48.490;9.688;2023-05-29T06:33:23;20.90;40.10
45044;DHT22;30784;48.490;9.688;2023-05-29T06:35:49;21.00;39.40
45044;DHT22;30784;48.490;9.688;2023-05-29T06:38:15;21.10;39.10
45044;DHT22;30784;48.490;9.688;2023-05-29T06:40:41;21.20;39.00
45044;DHT22;30784;48.490;9.688;2023-05-29T06:43:06;21.30;39.00
45044;DHT22;30784;48.490;9.688;2023-05-29T06:45:32;21.40;38.80
45044;DHT22;30784;48.490;9.688;2023-05-29T06:47:57;21.50;38.80
45044;DHT22;30784;48.490;9.688;2023-05-29T06:50:23;21.50;38.80
45044;DHT22;30784;48.490;9.688;2023-05-29T06:52:49;21.60;38.70
45044;DHT22;30784;48.490;9.688;2023-05-29T06:55:14;21.60;38.40
45044;DHT22;30784;48.490;9.688;2023-05-29T06:57:40;21.70;38.40
45044;DHT22;30784;48.490;9.688;2023-05-29T07:00:06;21.70;38.10
45044;DHT22;30784;48.490;9.688;2023-05-29T07:02:33;21.70;37.90
45044;DHT22;30784;48.490;9.688;2023-05-29T07:04:58;21.70;37.90
45044;DHT22;30784;48.490;9.688;2023-05-29T07:07:24;21.70;38.00
45044;DHT22;30784;48.490;9.688;2023-05-29T07:09:49;21.70;37.80
45044;DHT22;30784;48.490;9.688;2023-05-29T07:12:15;21.80;37.70
45044;DHT22;30784;48.490;9.688;2023-05-29T07:14:40;21.70;37.80
45044;DHT22;30784;48.490;9.688;2023-05-29T07:17:06;21.70;38.30
45044;DHT22;30784;48.490;9.688;2023-05-29T07:19:31;21.70;37.40
45044;DHT22;30784;48.490;9.688;2023-05-29T07:22:00;21.70;37.50
45044;DHT22;30784;48.490;9.688;2023-05-29T07:24:25;21.70;37.40
45044;DHT22;30784;48.490;9.688;2023-05-29T07:26:52;21.70;37.60
45044;DHT22;30784;48.490;9.688;2023-05-29T07:29:17;21.70;37.40
45044;DHT22;30784;48.490;9.688;2023-05-29T07:31:46;21.70;37.40
45044;DHT22;30784;48.490;9.688;2023-05-29T07:34:11;21.60;37.30
45044;DHT22;30784;48.490;9.688;2023-05-29T07:36:56;21.60;37.20
45044;DHT22;30784;48.490;9.688;2023-05-29T07:39:21;21.60;37.50
45044;DHT22;30784;48.490;9.688;2023-05-29T07:41:47;21.60;37.20
45044;DHT22;30784;48.490;9.688;2023-05-29T07:44:13;21.60;37.10
45044;DHT22;30784;48.490;9.688;2023-05-29T07:46:38;21.60;37.00
45044;DHT22;30784;48.490;9.688;2023-05-29T07:49:04;21.60;37.10
45044;DHT22;30784;48.490;9.688;2023-05-29T07:51:30;21.60;37.20
45044;DHT22;30784;48.490;9.688;2023-05-29T07:53:56;21.60;37.30
45044;DHT22;30784;48.490;9.688;2023-05-29T07:56:22;21.60;37.30
45044;DHT22;30784;48.490;9.688;2023-05-29T07:58:47;21.60;37.70
45044;DHT22;30784;48.490;9.688;2023-05-29T08:01:13;21.60;37.60
45044;DHT22;30784;48.490;9.688;2023-05-29T08:03:41;21.70;37.30
45044;DHT22;30784;48.490;9.688;2023-05-29T08:06:06;21.80;37.40
45044;DHT22;30784;48.490;9.688;2023-05-29T08:08:32;21.80;37.00
45044;DHT22;30784;48.490;9.688;2023-05-29T08:10:58;21.90;36.90
45044;DHT22;30784;48.490;9.688;2023-05-29T08:13:23;21.90;36.70
45044;DHT22;30784;48.490;9.688;2023-05-29T08:15:49;22.00;36.90
45044;DHT22;30784;48.490;9.688;2023-05-29T08:18:14;22.00;36.60
45044;DHT22;30784;48.490;9.688;2023-05-29T08:20:40;22.10;37.00
45044;DHT22;30784;48.490;9.688;2023-05-29T08:23:05;22.10;36.20
45044;DHT22;30784;48.490;9.688;2023-05-29T08:25:31;22.10;36.20
45044;DHT22;30784;48.490;9.688;2023-05-29T08:27:57;22.20;36.10
45044;DHT22;30784;48.490;9.688;2023-05-29T08:30:22;22.30;35.90
45044;DHT22;30784;48.490;9.688;2023-05-29T08:32:48;22.30;35.60
45044;DHT22;30784;48.490;9.688;2023-05-29T08:35:15;22.40;35.50
45044;DHT22;30784;48.490;9.688;2023-05-29T08:37:41;22.40;35.50
45044;DHT22;30784;48.490;9.688;2023-05-29T08:40:07;22.50;35.50
45044;DHT22;30784;48.490;9.688;2023-05-29T08:42:36;22.60;35.80
45044;DHT22;30784;48.490;9.688;2023-05-29T08:45:03;22.70;35.60
45044;DHT22;30784;48.490;9.688;2023-05-29T08:47:32;22.80;35.10
45044;DHT22;30784;48.490;9.688;2023-05-29T08:50:00;23.00;35.60
45044;DHT22;30784;48.490;9.688;2023-05-29T08:52:26;23.20;35.40
45044;DHT22;30784;48.490;9.688;2023-05-29T08:54:54;23.40;34.40
45044;DHT22;30784;48.490;9.688;2023-05-29T08:57:21;23.60;34.20
45044;DHT22;30784;48.490;9.688;2023-05-29T08:59:51;23.70;34.40
45044;DHT22;30784;48.490;9.688;2023-05-29T09:02:17;23.90;34.10
45044;DHT22;30784;48.490;9.688;2023-05-29T09:04:43;24.00;33.90
45044;DHT22;30784;48.490;9.688;2023-05-29T09:07:14;24.20;33.00
45044;DHT22;30784;48.490;9.688;2023-05-29T09:09:40;24.30;33.40
45044;DHT22;30784;48.490;9.688;2023-05-29T09:12:06;24.50;33.40
45044;DHT22;30784;48.490;9.688;2023-05-29T09:17:00;24.80;32.80
45044;DHT22;30784;48.490;9.688;2023-05-29T09:19:25;25.00;32.80
45044;DHT22;30784;48.490;9.688;2023-05-29T09:21:51;25.10;32.60
45044;DHT22;30784;48.490;9.688;2023-05-29T09:24:17;25.30;32.20
45044;DHT22;30784;48.490;9.688;2023-05-29T09:26:51;25.50;32.20
45044;DHT22;30784;48.490;9.688;2023-05-29T09:29:17;25.80;32.20
45044;DHT22;30784;48.490;9.688;2023-05-29T09:31:46;25.90;32.00
45044;DHT22;30784;48.490;9.688;2023-05-29T09:34:12;26.10;31.90
45044;DHT22;30784;48.490;9.688;2023-05-29T09:36:38;26.40;31.50
45044;DHT22;30784;48.490;9.688;2023-05-29T09:39:04;26.60;31.40
45044;DHT22;30784;48.490;9.688;2023-05-29T09:41:29;26.80;31.90
45044;DHT22;30784;48.490;9.688;2023-05-29T09:44:00;27.10;31.00
45044;DHT22;30784;48.490;9.688;2023-05-29T09:46:26;27.30;30.90
45044;DHT22;30784;48.490;9.688;2023-05-29T09:48:52;27.60;30.70
45044;DHT22;30784;48.490;9.688;2023-05-29T09:51:22;27.80;30.00
45044;DHT22;30784;48.490;9.688;2023-05-29T09:53:48;28.00;30.20
45044;DHT22;30784;48.490;9.688;2023-05-29T09:56:16;28.10;30.00
45044;DHT22;30784;48.490;9.688;2023-05-29T09:58:43;28.30;30.00
45044;DHT22;30784;48.490;9.688;2023-05-29T10:01:14;28.60;29.70
45044;DHT22;30784;48.490;9.688;2023-05-29T10:03:42;28.70;29.80
45044;DHT22;30784;48.490;9.688;2023-05-29T10:06:13;28.90;29.00
45044;DHT22;30784;48.490;9.688;2023-05-29T10:08:45;28.90;29.00
45044;DHT22;30784;48.490;9.688;2023-05-29T10:11:18;29.00;29.10
45044;DHT22;30784;48.490;9.688;2023-05-29T10:13:45;29.10;28.60
45044;DHT22;30784;48.490;9.688;2023-05-29T10:16:14;29.10;29.20
45044;DHT22;30784;48.490;9.688;2023-05-29T10:18:44;29.20;28.30
45044;DHT22;30784;48.490;9.688;2023-05-29T10:21:17;29.10;28.30
45044;DHT22;30784;48.490;9.688;2023-05-29T10:23:50;29.10;28.20
45044;DHT22;30784;48.490;9.688;2023-05-29T10:26:22;29.10;27.80
45044;DHT22;30784;48.490;9.688;2023-05-29T10:34:45;29.00;27.90
45044;DHT22;30784;48.490;9.688;2023-05-29T10:37:35;29.00;27.90
45044;DHT22;30784;48.490;9.688;2023-05-29T10:40:06;29.10;27.40
45044;DHT22;30784;48.490;9.688;2023-05-29T10:42:47;29.20;27.00
45044;DHT22;30784;48.490;9.688;2023-05-29T10:50:43;29.30;26.90
45044;DHT22;30784;48.490;9.688;2023-05-29T10:53:10;29.30;26.80
45044;DHT22;30784;48.490;9.688;2023-05-29T10:55:36;29.40;26.50
45044;DHT22;30784;48.490;9.688;2023-05-29T10:58:09;29.50;26.50
45044;DHT22;30784;48.490;9.688;2023-05-29T11:00:41;29.50;26.00
45044;DHT22;30784;48.490;9.688;2023-05-29T11:03:14;29.50;26.10
45044;DHT22;30784;48.490;9.688;2023-05-29T11:05:58;29.50;26.00
45044;DHT22;30784;48.490;9.688;2023-05-29T11:08:45;29.50;26.10
45044;DHT22;30784;48.490;9.688;2023-05-29T11:11:12;29.50;25.80
45044;DHT22;30784;48.490;9.688;2023-05-29T11:13:38;29.50;24.90
45044;DHT22;30784;48.490;9.688;2023-05-29T11:16:20;29.40;25.00
45044;DHT22;30784;48.490;9.688;2023-05-29T11:19:05;29.40;25.40
45044;DHT22;30784;48.490;9.688;2023-05-29T11:21:49;29.40;25.40
45044;DHT22;30784;48.490;9.688;2023-05-29T11:24:25;29.30;24.80
45044;DHT22;30784;48.490;9.688;2023-05-29T11:26:52;29.20;24.90
45044;DHT22;30784;48.490;9.688;2023-05-29T11:29:28;29.20;25.20
45044;DHT22;30784;48.490;9.688;2023-05-29T11:32:07;29.20;25.30
45044;DHT22;30784;48.490;9.688;2023-05-29T11:34:40;29.10;25.40
45044;DHT22;30784;48.490;9.688;2023-05-29T11:37:06;29.10;25.30
45044;DHT22;30784;48.490;9.688;2023-05-29T11:39:36;29.00;25.40
45044;DHT22;30784;48.490;9.688;2023-05-29T11:42:02;29.00;25.10
45044;DHT22;30784;48.490;9.688;2023-05-29T11:44:28;28.90;25.20
45044;DHT22;30784;48.490;9.688;2023-05-29T11:47:20;28.80;25.00
45044;DHT22;30784;48.490;9.688;2023-05-29T11:49:48;28.70;25.20
45044;DHT22;30784;48.490;9.688;2023-05-29T11:52:14;28.60;24.80
45044;DHT22;30784;48.490;9.688;2023-05-29T11:54:42;28.60;24.30
45044;DHT22;30784;48.490;9.688;2023-05-29T11:57:17;28.50;24.60
45044;DHT22;30784;48.490;9.688;2023-05-29T11:59:43;28.40;24.70
45044;DHT22;30784;48.490;9.688;2023-05-29T12:02:08;28.40;24.20
45044;DHT22;30784;48.490;9.688;2023-05-29T12:04:34;28.30;24.10
45044;DHT22;30784;48.490;9.688;2023-05-29T12:06:59;28.30;24.20
45044;DHT22;30784;48.490;9.688;2023-05-29T12:09:27;28.30;24.40
45044;DHT22;30784;48.490;9.688;2023-05-29T12:12:02;28.20;24.30
45044;DHT22;30784;48.490;9.688;2023-05-29T12:14:28;28.20;24.00
45044;DHT22;30784;48.490;9.688;2023-05-29T12:16:54;28.20;23.70
45044;DHT22;30784;48.490;9.688;2023-05-29T12:19:20;28.10;23.80
45044;DHT22;30784;48.490;9.688;2023-05-29T12:21:45;28.10;24.00
45044;DHT22;30784;48.490;9.688;2023-05-29T12:24:11;28.10;24.00
45044;DHT22;30784;48.490;9.688;2023-05-29T12:26:37;28.00;24.20
45044;DHT22;30784;48.490;9.688;2023-05-29T12:29:03;28.00;24.20
45044;DHT22;30784;48.490;9.688;2023-05-29T12:31:30;28.00;24.10
45044;DHT22;30784;48.490;9.688;2023-05-29T12:34:10;28.00;24.00
45044;DHT22;30784;48.490;9.688;2023-05-29T12:36:40;28.00;24.10
45044;DHT22;30784;48.490;9.688;2023-05-29T12:39:07;28.00;24.10
45044;DHT22;30784;48.490;9.688;2023-05-29T12:41:36;28.00;23.80
45044;DHT22;30784;48.490;9.688;2023-05-29T12:44:04;28.00;24.20
45044;DHT22;30784;48.490;9.688;2023-05-29T12:46:40;28.00;24.00
45044;DHT22;30784;48.490;9.688;2023-05-29T12:49:12;28.00;24.10
45044;DHT22;30784;48.490;9.688;2023-05-29T12:51:40;28.00;24.00
45044;DHT22;30784;48.490;9.688;2023-05-29T12:54:05;28.00;24.20
45044;DHT22;30784;48.490;9.688;2023-05-29T12:56:31;28.00;23.80
45044;DHT22;30784;48.490;9.688;2023-05-29T12:58:56;28.00;24.00
45044;DHT22;30784;48.490;9.688;2023-05-29T13:01:22;27.90;24.10
45044;DHT22;30784;48.490;9.688;2023-05-29T13:03:49;27.90;24.40
45044;DHT22;30784;48.490;9.688;2023-05-29T13:06:15;27.80;24.00
45044;DHT22;30784;48.490;9.688;2023-05-29T13:08:42;27.80;24.00
45044;DHT22;30784;48.490;9.688;2023-05-29T13:11:08;27.80;24.30
45044;DHT22;30784;48.490;9.688;2023-05-29T13:13:33;27.70;24.30
45044;DHT22;30784;48.490;9.688;2023-05-29T13:15:59;27.70;24.50
45044;DHT22;30784;48.490;9.688;2023-05-29T13:18:25;27.70;24.50
45044;DHT22;30784;48.490;9.688;2023-05-29T13:20:50;27.70;24.40
45044;DHT22;30784;48.490;9.688;2023-05-29T13:23:16;27.70;24.50
45044;DHT22;30784;48.490;9.688;2023-05-29T13:25:41;27.60;24.40
45044;DHT22;30784;48.490;9.688;2023-05-29T13:28:07;27.60;24.60
45044;DHT22;30784;48.490;9.688;2023-05-29T13:30:33;27.50;24.60
45044;DHT22;30784;48.490;9.688;2023-05-29T13:32:58;27.50;24.80
45044;DHT22;30784;48.490;9.688;2023-05-29T13:35:24;27.50;24.60
45044;DHT22;30784;48.490;9.688;2023-05-29T13:37:49;27.50;24.50
45044;DHT22;30784;48.490;9.688;2023-05-29T13:40:15;27.50;24.50
45044;DHT22;30784;48.490;9.688;2023-05-29T13:42:41;27.50;24.60
45044;DHT22;30784;48.490;9.688;2023-05-29T13:45:07;27.50;24.50
45044;DHT22;30784;48.490;9.688;2023-05-29T13:47:36;27.50;24.40
45044;DHT22;30784;48.490;9.688;2023-05-29T13:50:02;27.40;24.50
45044;DHT22;30784;48.490;9.688;2023-05-29T13:52:28;27.40;24.40
45044;DHT22;30784;48.490;9.688;2023-05-29T13:54:53;27.40;24.30
45044;DHT22;30784;48.490;9.688;2023-05-29T13:57:19;27.40;24.30
45044;DHT22;30784;48.490;9.688;2023-05-29T13:59:45;27.40;24.30
45044;DHT22;30784;48.490;9.688;2023-05-29T14:02:11;27.40;24.10
45044;DHT22;30784;48.490;9.688;2023-05-29T14:04:38;27.40;24.30
45044;DHT22;30784;48.490;9.688;2023-05-29T14:07:04;27.40;24.40
45044;DHT22;30784;48.490;9.688;2023-05-29T14:09:30;27.40;24.10
45044;DHT22;30784;48.490;9.688;2023-05-29T14:11:58;27.40;24.20
45044;DHT22;30784;48.490;9.688;2023-05-29T14:14:24;27.40;24.10
45044;DHT22;30784;48.490;9.688;2023-05-29T14:16:50;27.50;24.20
45044;DHT22;30784;48.490;9.688;2023-05-29T14:19:17;27.50;24.30
45044;DHT22;30784;48.490;9.688;2023-05-29T14:21:43;27.60;24.30
45044;DHT22;30784;48.490;9.688;2023-05-29T14:24:09;27.60;24.20
45044;DHT22;30784;48.490;9.688;2023-05-29T14:26:35;27.80;24.20
45044;DHT22;30784;48.490;9.688;2023-05-29T14:29:01;27.90;23.90
45044;DHT22;30784;48.490;9.688;2023-05-29T14:31:27;28.00;24.00
45044;DHT22;30784;48.490;9.688;2023-05-29T14:33:52;28.20;23.90
45044;DHT22;30784;48.490;9.688;2023-05-29T14:36:18;28.30;23.70
45044;DHT22;30784;48.490;9.688;2023-05-29T14:38:43;28.50;23.60
45044;DHT22;30784;48.490;9.688;2023-05-29T14:41:10;28.70;23.60
45044;DHT22;30784;48.490;9.688;2023-05-29T14:43:37;28.80;23.40
45044;DHT22;30784;48.490;9.688;2023-05-29T14:46:03;29.00;23.50
45044;DHT22;30784;48.490;9.688;2023-05-29T14:48:28;29.10;23.30
45044;DHT22;30784;48.490;9.688;2023-05-29T14:50:54;29.20;23.40
45044;DHT22;30784;48.490;9.688;2023-05-29T14:53:20;29.40;23.00
45044;DHT22;30784;48.490;9.688;2023-05-29T14:55:48;29.50;22.80
45044;DHT22;30784;48.490;9.688;2023-05-29T14:58:14;29.70;22.80
45044;DHT22;30784;48.490;9.688;2023-05-29T15:00:39;29.80;22.90
45044;DHT22;30784;48.490;9.688;2023-05-29T15:03:05;29.90;22.70
45044;DHT22;30784;48.490;9.688;2023-05-29T15:05:31;30.00;22.40
45044;DHT22;30784;48.490;9.688;2023-05-29T15:07:56;30.10;22.40
45044;DHT22;30784;48.490;9.688;2023-05-29T15:10:25;30.10;22.30
45044;DHT22;30784;48.490;9.688;2023-05-29T15:12:54;30.20;22.20
45044;DHT22;30784;48.490;9.688;2023-05-29T15:15:28;30.20;21.90
45044;DHT22;30784;48.490;9.688;2023-05-29T15:17:54;30.30;22.20
45044;DHT22;30784;48.490;9.688;2023-05-29T15:20:24;30.30;21.80
45044;DHT22;30784;48.490;9.688;2023-05-29T15:22:50;30.30;21.70
45044;DHT22;30784;48.490;9.688;2023-05-29T15:25:17;30.30;21.70
45044;DHT22;30784;48.490;9.688;2023-05-29T15:27:43;30.20;21.60
45044;DHT22;30784;48.490;9.688;2023-05-29T15:30:10;30.20;21.60
45044;DHT22;30784;48.490;9.688;2023-05-29T15:32:38;30.10;21.50
45044;DHT22;30784;48.490;9.688;2023-05-29T15:35:05;30.10;21.60
45044;DHT22;30784;48.490;9.688;2023-05-29T15:37:30;30.00;21.70
45044;DHT22;30784;48.490;9.688;2023-05-29T15:39:56;30.00;21.60
45044;DHT22;30784;48.490;9.688;2023-05-29T15:42:21;29.90;21.50
45044;DHT22;30784;48.490;9.688;2023-05-29T15:44:47;29.80;21.40
45044;DHT22;30784;48.490;9.688;2023-05-29T15:47:13;29.70;21.40
45044;DHT22;30784;48.490;9.688;2023-05-29T15:49:38;29.60;21.50
45044;DHT22;30784;48.490;9.688;2023-05-29T15:52:04;29.50;21.50
45044;DHT22;30784;48.490;9.688;2023-05-29T15:54:29;29.30;21.40